Time;durP1;ratioP1;P1;durP2;ratioP2;P2;SDS_P1;SDS_P2;PMS_P1;PMS_P2;Temp;Humidity;BMP_temperature;BMP_pressure;BME280_temperature;BME280_humidity;BME280_pressure;Samples;Min_cycle;Max_cycle;Signal;HPM_P1;HPM_P2
2022/04/15 00:00:31;;;;;;;1.15;1.05;;;17.40;55.80;;;;;;4950090;28;20230;-59
2022/04/15 00:03:02;;;;;;;2.33;0.90;;;17.40;55.80;;;;;;4947540;28;20238;-59
2022/04/15 00:05:36;;;;;;;1.42;0.93;;;17.40;55.70;;;;;;4946629;28;20199;-60
2022/04/15 00:08:08;;;;;;;1.92;0.90;;;17.50;55.70;;;;;;4951100;29;20194;-59
2022/04/15 00:10:39;;;;;;;2.13;1.10;;;17.50;55.80;;;;;;4954388;28;20572;-57
2022/04/15 00:13:12;;;;;;;1.67;1.10;;;17.50;56.30;;;;;;4943923;28;21594;-59
2022/04/15 00:15:43;;;;;;;2.35;1.35;;;17.60;55.70;;;;;;4951562;29;20199;-59
2022/04/15 00:18:14;;;;;;;3.70;1.50;;;17.60;55.80;;;;;;4952836;28;20294;-59
2022/04/15 00:20:44;;;;;;;2.85;1.13;;;17.60;55.80;;;;;;4953253;28;20230;-59
2022/04/15 00:23:15;;;;;;;1.40;1.00;;;17.60;55.80;;;;;;4954125;28;20246;-59
2022/04/15 00:25:45;;;;;;;2.08;1.13;;;17.70;55.80;;;;;;4945015;28;20204;-59
2022/04/15 00:28:18;;;;;;;2.25;1.08;;;17.70;55.80;;;;;;4949928;29;20195;-59
2022/04/15 00:30:49;;;;;;;2.03;0.90;;;17.80;55.90;;;;;;4948088;28;20273;-58
2022/04/15 00:33:19;;;;;;;2.88;1.00;;;17.80;55.80;;;;;;4951363;28;20226;-57
2022/04/15 00:35:50;;;;;;;1.33;1.00;;;17.80;55.80;;;;;;4953073;28;20294;-59
2022/04/15 00:38:21;;;;;;;2.17;1.10;;;17.90;55.90;;;;;;4953024;28;20739;-58
2022/04/15 00:40:51;;;;;;;1.90;1.20;;;17.90;56.00;;;;;;4953520;28;20233;-59
2022/04/15 00:43:24;;;;;;;2.35;1.23;;;18.00;56.00;;;;;;4953467;28;20222;-59
2022/04/15 00:45:54;;;;;;;2.08;1.30;;;18.00;56.10;;;;;;4949962;28;20223;-58
2022/04/15 00:48:27;;;;;;;2.55;1.20;;;18.10;56.20;;;;;;4952376;28;20766;-59
2022/04/15 00:50:57;;;;;;;2.35;1.17;;;18.10;56.40;;;;;;4952455;28;20220;-59
2022/04/15 00:53:30;;;;;;;2.53;1.30;;;18.10;56.40;;;;;;4947588;28;20293;-59
2022/04/15 00:56:03;;;;;;;2.22;1.00;;;18.20;56.50;;;;;;4952229;28;20577;-59
2022/04/15 00:58:38;;;;;;;2.22;1.05;;;18.20;56.50;;;;;;4951603;28;20199;-58
2022/04/15 01:01:10;;;;;;;4.43;1.23;;;18.20;56.50;;;;;;4950876;28;21105;-59
2022/04/15 01:03:42;;;;;;;3.05;1.25;;;18.30;56.60;;;;;;4953042;29;20850;-60
2022/04/15 01:06:15;;;;;;;3.33;1.42;;;18.30;56.70;;;;;;4953523;28;20199;-59
2022/04/15 01:08:49;;;;;;;2.33;1.40;;;18.30;56.70;;;;;;4950850;28;20289;-59
2022/04/15 01:11:22;;;;;;;4.45;1.60;;;18.30;56.50;;;;;;4952812;28;20197;-58
2022/04/15 01:13:55;;;;;;;4.57;2.05;;;18.40;56.50;;;;;;4949464;28;20715;-59
2022/04/15 01:16:26;;;;;;;1.95;1.20;;;18.40;56.50;;;;;;4950432;28;20191;-57
2022/04/15 01:18:56;;;;;;;3.92;1.95;;;18.50;56.50;;;;;;4952443;28;20285;-60
2022/04/15 01:21:30;;;;;;;2.92;1.52;;;18.50;56.50;;;;;;4952216;28;20254;-58
2022/04/15 01:24:02;;;;;;;4.03;2.00;;;18.50;56.50;;;;;;4951706;28;20221;-59
2022/04/15 01:26:33;;;;;;;3.95;1.83;;;18.50;56.50;;;;;;4952614;28;20585;-59
2022/04/15 01:29:05;;;;;;;3.83;1.98;;;18.60;56.70;;;;;;4952365;28;20207;-59
2022/04/15 01:31:35;;;;;;;6.72;2.03;;;18.60;56.70;;;;;;4953014;28;20199;-59
2022/04/15 01:34:06;;;;;;;5.65;2.50;;;18.60;56.70;;;;;;4952669;29;20305;-46
2022/04/15 01:36:37;;;;;;;28.42;10.70;;;18.70;56.80;;;;;;4951334;28;20199;-48
2022/04/15 01:39:11;;;;;;;17.20;7.30;;;18.70;57.00;;;;;;4951808;28;20273;-47
2022/04/15 01:41:42;;;;;;;15.55;6.43;;;18.70;57.20;;;;;;4952540;29;20223;-50
2022/04/15 01:44:15;;;;;;;9.55;3.85;;;18.70;57.60;;;;;;4952479;28;20270;-48
2022/04/15 01:46:46;;;;;;;9.40;3.20;;;18.70;57.90;;;;;;4950820;28;20203;-50
2022/04/15 01:49:16;;;;;;;8.13;3.00;;;18.70;57.90;;;;;;4951838;28;20302;-47
2022/04/15 01:51:47;;;;;;;11.40;3.25;;;18.70;58.00;;;;;;4953052;28;20290;-47
2022/04/15 01:54:19;;;;;;;6.90;2.50;;;18.60;58.20;;;;;;4952255;28;20270;-52
2022/04/15 01:56:50;;;;;;;9.70;2.67;;;18.60;58.30;;;;;;4951776;28;20556;-48
2022/04/15 01:59:20;;;;;;;9.90;5.43;;;18.60;58.30;;;;;;4951774;28;20230;-51
2022/04/15 02:01:54;;;;;;;17.90;9.02;;;18.60;58.40;;;;;;4951418;29;20218;-47
2022/04/15 02:04:25;;;;;;;21.15;10.90;;;18.60;58.60;;;;;;4952058;28;20219;-48
2022/04/15 02:06:56;;;;;;;12.10;5.65;;;18.60;58.90;;;;;;4952070;28;20282;-48
2022/04/15 02:09:28;;;;;;;12.32;8.82;;;18.60;59.00;;;;;;4952249;28;20287;-49
2022/04/15 02:11:59;;;;;;;10.25;6.88;;;18.60;59.00;;;;;;4949506;29;20195;-47
2022/04/15 02:14:29;;;;;;;8.82;4.50;;;18.60;59.00;;;;;;4951956;28;20214;-58
2022/04/15 02:17:01;;;;;;;8.23;4.00;;;18.60;58.90;;;;;;4949996;28;20195;-59
2022/04/15 02:19:32;;;;;;;7.78;3.78;;;18.60;58.80;;;;;;4940343;28;20207;-60
2022/04/15 02:22:02;;;;;;;7.13;3.58;;;18.60;59.00;;;;;;4915172;29;20687;-60
2022/04/15 02:24:35;;;;;;;6.15;3.47;;;18.60;59.10;;;;;;4915520;29;20316;-60
2022/04/15 02:27:05;;;;;;;6.03;3.17;;;18.60;59.20;;;;;;4914243;29;20200;-60
2022/04/15 02:29:36;;;;;;;8.68;3.70;;;18.60;59.10;;;;;;4914711;29;20200;-60
2022/04/15 02:32:07;;;;;;;8.25;3.42;;;18.70;59.10;;;;;;4914609;29;20208;-60
2022/04/15 02:34:38;;;;;;;6.25;2.90;;;18.70;59.00;;;;;;4914660;29;20263;-60
2022/04/15 02:37:08;;;;;;;5.57;3.50;;;18.80;58.90;;;;;;4918052;29;20665;-60
2022/04/15 02:39:41;;;;;;;4.85;3.13;;;18.80;58.90;;;;;;4913978;29;20547;-61
2022/04/15 02:42:12;;;;;;;3.83;2.83;;;18.80;58.80;;;;;;4914715;29;20333;-60
2022/04/15 02:44:43;;;;;;;5.90;3.03;;;18.90;58.70;;;;;;4914691;29;20203;-61
2022/04/15 02:47:13;;;;;;;8.85;4.03;;;18.90;58.60;;;;;;4925626;29;20720;-61
2022/04/15 02:49:44;;;;;;;5.97;3.00;;;18.90;58.50;;;;;;4933129;29;20251;-61
2022/04/15 02:52:16;;;;;;;5.82;2.83;;;19.00;58.40;;;;;;4934107;29;20207;-60
2022/04/15 02:54:48;;;;;;;4.32;2.65;;;19.10;58.40;;;;;;4933262;29;20972;-61
2022/04/15 02:57:18;;;;;;;4.80;2.55;;;19.10;58.20;;;;;;4932973;29;20226;-58
2022/04/15 02:59:49;;;;;;;5.32;2.50;;;19.20;58.10;;;;;;4933256;29;20199;-59
2022/04/15 03:02:20;;;;;;;7.30;2.88;;;19.20;58.10;;;;;;4933229;29;20223;-58
2022/04/15 03:04:50;;;;;;;9.60;3.03;;;19.20;58.10;;;;;;4932736;29;20336;-64
2022/04/15 03:07:21;;;;;;;9.93;2.50;;;19.30;58.30;;;;;;4933079;29;20229;-64
2022/04/15 03:09:53;;;;;;;6.05;2.33;;;19.40;58.30;;;;;;4934304;29;20658;-64
2022/04/15 03:12:23;;;;;;;6.85;2.20;;;19.40;58.20;;;;;;4932611;29;20788;-59
2022/04/15 03:14:54;;;;;;;5.50;2.10;;;19.50;58.20;;;;;;4933032;29;20287;-61
2022/04/15 03:17:25;;;;;;;7.28;2.22;;;19.50;58.10;;;;;;4933356;29;20211;-64
2022/04/15 03:19:55;;;;;;;6.00;2.17;;;19.60;58.00;;;;;;4932748;29;20731;-63
2022/04/15 03:22:26;;;;;;;5.72;1.95;;;19.70;58.00;;;;;;4932705;29;20646;-60
2022/04/15 03:24:58;;;;;;;7.05;2.10;;;19.70;57.90;;;;;;4933096;29;20291;-62
2022/04/15 03:27:29;;;;;;;5.82;2.10;;;19.80;57.90;;;;;;4932772;29;20195;-62
2022/04/15 03:30:00;;;;;;;3.75;1.80;;;19.90;57.80;;;;;;4932487;29;20200;-59
2022/04/15 03:32:30;;;;;;;4.20;1.92;;;19.90;57.70;;;;;;4932419;29;20581;-62
2022/04/15 03:35:01;;;;;;;5.20;1.95;;;20.00;57.60;;;;;;4932472;29;20199;-66
2022/04/15 03:37:32;;;;;;;19.10;2.53;;;20.10;57.50;;;;;;4932833;29;20210;-61
2022/04/15 03:40:05;;;;;;;16.25;2.00;;;20.10;57.40;;;;;;4932367;29;20290;-63
2022/04/15 03:42:49;;;;;;;10.48;1.98;;;20.10;57.40;;;;;;4932686;29;20434;-61
2022/04/15 03:45:22;;;;;;;7.63;1.77;;;20.20;57.30;;;;;;4932780;29;20211;-61
2022/04/15 03:47:54;;;;;;;10.80;1.95;;;20.20;57.20;;;;;;4932385;29;20291;-61
2022/04/15 03:50:24;;;;;;;5.22;1.48;;;20.30;57.10;;;;;;4932230;29;20203;-63
2022/04/15 03:52:55;;;;;;;6.15;1.70;;;20.30;57.00;;;;;;4933392;29;20315;-60
2022/04/15 03:55:28;;;;;;;5.70;1.58;;;20.30;56.90;;;;;;4932218;29;20258;-62
2022/04/15 03:57:58;;;;;;;3.75;1.50;;;20.40;56.80;;;;;;4932587;29;20290;-64
2022/04/15 04:00:29;;;;;;;8.27;2.20;;;20.40;56.60;;;;;;4932818;29;20286;-62
2022/04/15 04:02:59;;;;;;;8.02;1.70;;;20.40;56.50;;;;;;4932560;29;20327;-63
2022/04/15 04:05:29;;;;;;;4.50;1.45;;;20.40;56.40;;;;;;4932389;29;20767;-58
2022/04/15 04:08:00;;;;;;;5.88;1.42;;;20.50;56.40;;;;;;4932456;29;20754;-58
2022/04/15 04:10:33;;;;;;;5.28;1.63;;;20.50;56.20;;;;;;4932837;29;20291;-61
2022/04/15 04:13:03;;;;;;;4.00;1.58;;;20.50;56.20;;;;;;4932656;29;20231;-62
2022/04/15 04:15:34;;;;;;;4.93;1.50;;;20.60;56.20;;;;;;4932714;29;20294;-63
2022/04/15 04:18:05;;;;;;;4.60;1.85;;;20.60;56.10;;;;;;4932563;29;20294;-61
2022/04/15 04:20:35;;;;;;;5.07;1.33;;;20.60;56.00;;;;;;4931930;29;20283;-62
2022/04/15 04:23:06;;;;;;;3.85;1.40;;;20.60;55.90;;;;;;4931724;29;20317;-61
2022/04/15 04:25:38;;;;;;;4.35;1.50;;;20.60;55.80;;;;;;4932333;29;20199;-61
2022/04/15 04:28:09;;;;;;;7.90;1.48;;;20.70;55.80;;;;;;4932651;29;20286;-58
2022/04/15 04:30:39;;;;;;;3.72;1.52;;;20.70;55.70;;;;;;4931089;29;20283;-59
2022/04/15 04:33:10;;;;;;;3.70;1.48;;;20.70;55.60;;;;;;4932318;29;20230;-63
2022/04/15 04:35:40;;;;;;;5.68;1.50;;;20.70;55.50;;;;;;4931927;29;20755;-61
2022/04/15 04:38:11;;;;;;;2.33;1.08;;;20.80;55.50;;;;;;4932568;29;20641;-58
2022/04/15 04:40:44;;;;;;;5.57;1.50;;;20.80;55.40;;;;;;4932370;29;20291;-62
2022/04/15 04:43:14;;;;;;;4.40;1.48;;;20.80;55.30;;;;;;4932150;29;20231;-58
2022/04/15 04:45:46;;;;;;;4.10;1.83;;;20.80;55.30;;;;;;4932051;29;20295;-61
2022/04/15 04:48:17;;;;;;;5.00;1.90;;;20.80;55.20;;;;;;4913092;29;20636;-62
2022/04/15 04:50:47;;;;;;;4.55;2.00;;;20.80;55.10;;;;;;4916697;29;20314;-62
2022/04/15 04:53:18;;;;;;;6.93;2.40;;;20.80;55.10;;;;;;4936344;29;20224;-63
2022/04/15 04:55:50;;;;;;;6.45;2.58;;;20.80;55.00;;;;;;4938350;29;20285;-61
2022/04/15 04:58:21;;;;;;;5.65;2.65;;;20.80;55.00;;;;;;4947795;29;20293;-62
2022/04/15 05:00:51;;;;;;;7.47;3.45;;;20.80;54.90;;;;;;4953217;28;20282;-59
2022/04/15 05:03:22;;;;;;;6.90;3.45;;;20.80;54.90;;;;;;4952302;28;20313;-60
2022/04/15 05:05:52;;;;;;;11.02;3.92;;;20.80;54.90;;;;;;4952036;28;20299;-61
2022/04/15 05:08:22;;;;;;;8.15;3.80;;;20.80;54.90;;;;;;4951904;28;20199;-58
2022/04/15 05:10:55;;;;;;;6.70;3.60;;;20.80;54.90;;;;;;4952691;28;20282;-58
2022/04/15 05:13:25;;;;;;;6.65;4.07;;;20.80;54.90;;;;;;4951623;28;20297;-60
2022/04/15 05:15:55;;;;;;;7.20;3.83;;;20.80;54.90;;;;;;4950205;28;20286;-61
2022/04/15 05:18:26;;;;;;;7.63;3.50;;;20.80;54.90;;;;;;4952819;28;20226;-60
2022/04/15 05:20:56;;;;;;;6.00;3.15;;;20.80;54.90;;;;;;4952175;28;20289;-61
2022/04/15 05:23:27;;;;;;;6.78;3.50;;;20.80;54.90;;;;;;4950033;28;20261;-61
2022/04/15 05:25:59;;;;;;;5.95;3.08;;;20.80;54.80;;;;;;4951339;29;20282;-60
2022/04/15 05:28:31;;;;;;;6.65;3.25;;;20.80;54.80;;;;;;4953415;28;20195;-57
2022/04/15 05:31:01;;;;;;;5.88;3.50;;;20.80;54.80;;;;;;4952425;28;20222;-59
2022/04/15 05:33:32;;;;;;;7.40;3.08;;;20.80;54.80;;;;;;4952459;28;20769;-60
2022/04/15 05:36:02;;;;;;;5.18;2.88;;;20.80;54.80;;;;;;4951675;28;20282;-58
2022/04/15 05:38:33;;;;;;;4.55;3.30;;;20.80;54.80;;;;;;4952897;28;20775;-60
2022/04/15 05:41:05;;;;;;;6.80;3.30;;;20.80;54.70;;;;;;4952515;28;20277;-61
2022/04/15 05:43:37;;;;;;;7.20;3.28;;;20.80;54.70;;;;;;4952268;28;20931;-59
2022/04/15 05:46:07;;;;;;;6.57;3.33;;;20.80;54.70;;;;;;4951797;28;20230;-60
2022/04/15 05:48:38;;;;;;;6.82;3.28;;;20.80;54.70;;;;;;4951154;28;20286;-61
2022/04/15 05:51:08;;;;;;;5.55;3.00;;;20.70;54.70;;;;;;4951179;29;20606;-63
2022/04/15 05:53:42;;;;;;;5.35;3.05;;;20.70;54.90;;;;;;4952111;28;20761;-60
2022/04/15 05:56:14;;;;;;;6.60;3.50;;;20.70;54.70;;;;;;4952254;28;20233;-62
2022/04/15 05:58:44;;;;;;;6.15;2.92;;;20.70;54.70;;;;;;4951747;28;20629;-61
2022/04/15 06:01:15;;;;;;;3.95;2.35;;;20.70;54.70;;;;;;4951578;28;20721;-63
2022/04/15 06:03:45;;;;;;;5.38;2.95;;;20.70;54.80;;;;;;4952209;28;20318;-61
2022/04/15 06:06:16;;;;;;;4.70;2.97;;;20.70;54.80;;;;;;4951386;28;20289;-62
2022/04/15 06:08:46;;;;;;;7.72;2.70;;;20.70;54.80;;;;;;4951077;28;20282;-61
2022/04/15 06:11:19;;;;;;;5.45;3.05;;;20.70;54.70;;;;;;4952346;28;20222;-62
2022/04/15 06:13:50;;;;;;;4.05;2.90;;;20.70;54.70;;;;;;4952097;28;20303;-62
2022/04/15 06:16:21;;;;;;;3.40;2.50;;;20.60;54.70;;;;;;4952023;28;20211;-62
2022/04/15 06:18:51;;;;;;;4.47;2.67;;;20.60;54.60;;;;;;4952265;28;20213;-63
2022/04/15 06:21:22;;;;;;;3.88;2.80;;;20.60;54.60;;;;;;4951217;28;20286;-60
2022/04/15 06:23:53;;;;;;;6.75;3.28;;;20.60;54.60;;;;;;4951853;28;20319;-61
2022/04/15 06:26:26;;;;;;;4.63;2.72;;;20.60;54.70;;;;;;4951550;28;20289;-61
2022/04/15 06:28:56;;;;;;;5.18;2.97;;;20.60;54.60;;;;;;4951458;28;20395;-60
2022/04/15 06:31:27;;;;;;;6.50;3.05;;;20.50;54.60;;;;;;4951232;28;20282;-59
2022/04/15 06:33:57;;;;;;;5.82;3.03;;;20.50;54.60;;;;;;4951176;28;20313;-63
2022/04/15 06:36:28;;;;;;;5.85;3.30;;;20.50;54.60;;;;;;4951240;28;20202;-61
2022/04/15 06:38:58;;;;;;;5.47;2.95;;;20.50;54.70;;;;;;4948609;28;20294;-61
2022/04/15 06:41:30;;;;;;;4.00;2.83;;;20.50;54.80;;;;;;4950661;29;20273;-60
2022/04/15 06:44:01;;;;;;;4.68;3.13;;;20.50;54.80;;;;;;4950726;28;20301;-58
2022/04/15 06:46:31;;;;;;;4.90;3.30;;;20.50;54.80;;;;;;4950896;28;20201;-60
2022/04/15 06:49:02;;;;;;;7.28;4.03;;;20.40;54.80;;;;;;4950605;28;20288;-59
2022/04/15 06:51:38;;;;;;;4.30;2.75;;;20.40;54.80;;;;;;4950542;29;20726;-62
2022/04/15 06:54:08;;;;;;;5.75;3.08;;;20.40;54.70;;;;;;4951168;28;20758;-60
2022/04/15 06:56:41;;;;;;;4.95;3.05;;;20.40;54.80;;;;;;4950892;28;20640;-59
2022/04/15 06:59:11;;;;;;;5.15;3.03;;;20.40;54.80;;;;;;4951141;28;20892;-61
2022/04/15 07:01:42;;;;;;;5.68;3.33;;;20.30;54.70;;;;;;4950416;28;20238;-60
2022/04/15 07:04:13;;;;;;;4.18;3.00;;;20.30;54.70;;;;;;4950662;28;20218;-62
2022/04/15 07:06:43;;;;;;;4.65;3.00;;;20.30;54.70;;;;;;4950255;28;20202;-63
2022/04/15 07:09:14;;;;;;;4.95;3.10;;;20.30;54.70;;;;;;4948178;28;20286;-58
2022/04/15 07:11:46;;;;;;;4.10;3.50;;;20.30;54.70;;;;;;4949964;28;20287;-61
2022/04/15 07:14:16;;;;;;;4.55;2.95;;;20.20;54.70;;;;;;4949581;28;20836;-59
2022/04/15 07:16:47;;;;;;;4.82;3.80;;;20.20;54.70;;;;;;4948156;28;20856;-63
2022/04/15 07:19:17;;;;;;;7.43;3.65;;;20.20;54.80;;;;;;4950489;29;20285;-57
2022/04/15 07:21:48;;;;;;;4.25;3.20;;;20.20;54.80;;;;;;4950535;28;20274;-57
2022/04/15 07:24:18;;;;;;;4.10;3.03;;;20.20;54.80;;;;;;4947925;28;20294;-60
2022/04/15 07:26:51;;;;;;;4.40;3.15;;;20.10;54.70;;;;;;4949949;28;20291;-59
2022/04/15 07:29:21;;;;;;;5.65;3.38;;;20.10;54.70;;;;;;4950127;28;20286;-57
2022/04/15 07:31:51;;;;;;;5.10;3.42;;;20.10;54.70;;;;;;4950897;28;20282;-61
2022/04/15 07:34:22;;;;;;;4.78;3.90;;;20.10;54.80;;;;;;4913819;29;20315;-61
2022/04/15 07:36:55;;;;;;;6.50;3.47;;;20.10;54.80;;;;;;4923669;29;20282;-59
2022/04/15 07:39:26;;;;;;;5.85;3.85;;;20.00;54.80;;;;;;4933915;29;20660;-60
2022/04/15 07:41:58;;;;;;;5.53;4.07;;;20.00;54.80;;;;;;4936782;29;20245;-60
2022/04/15 07:44:30;;;;;;;5.78;3.67;;;20.00;54.80;;;;;;4950114;28;20219;-61
2022/04/15 07:47:00;;;;;;;5.47;3.83;;;20.00;54.80;;;;;;4942017;28;20290;-60
2022/04/15 07:49:30;;;;;;;5.57;3.60;;;20.00;54.80;;;;;;4931910;29;20199;-60
2022/04/15 07:52:01;;;;;;;4.20;3.30;;;19.90;54.80;;;;;;4932249;29;20204;-59
2022/04/15 07:54:31;;;;;;;5.15;3.45;;;19.90;54.80;;;;;;4939745;29;20225;-58
2022/04/15 07:57:04;;;;;;;4.43;3.50;;;19.90;54.80;;;;;;4951716;28;20294;-61
2022/04/15 07:59:34;;;;;;;5.85;3.35;;;19.90;54.80;;;;;;4951116;28;20195;-60
2022/04/15 08:02:06;;;;;;;6.05;4.07;;;19.90;54.80;;;;;;4951409;28;20230;-60
2022/04/15 08:04:41;;;;;;;4.88;3.78;;;19.90;54.80;;;;;;4937542;28;20653;-60
2022/04/15 08:07:12;;;;;;;4.82;3.45;;;19.80;54.80;;;;;;4931844;29;20262;-61
2022/04/15 08:09:42;;;;;;;4.05;3.38;;;19.80;54.80;;;;;;4932517;29;20800;-58
2022/04/15 08:12:15;;;;;;;3.97;3.33;;;19.70;54.70;;;;;;4932895;29;20290;-61
2022/04/15 08:14:45;;;;;;;5.03;3.55;;;19.80;54.80;;;;;;4932883;29;20200;-57
2022/04/15 08:17:16;;;;;;;4.53;4.00;;;19.70;54.80;;;;;;4932662;29;20290;-60
2022/04/15 08:19:46;;;;;;;5.78;4.10;;;19.70;54.80;;;;;;4932162;29;20282;-58
2022/04/15 08:22:16;;;;;;;5.40;3.72;;;19.70;54.90;;;;;;4931473;29;20634;-58
2022/04/15 08:24:47;;;;;;;4.63;4.07;;;19.60;54.80;;;;;;4931549;29;20253;-60
2022/04/15 08:27:19;;;;;;;5.63;4.72;;;19.60;54.90;;;;;;4936193;29;20287;-61
2022/04/15 08:29:50;;;;;;;4.60;4.20;;;19.60;55.00;;;;;;4935536;29;20290;-61
2022/04/15 08:32:22;;;;;;;4.72;4.20;;;19.60;55.00;;;;;;4953807;29;20210;-60
2022/04/15 08:34:52;;;;;;;5.28;4.25;;;19.60;55.00;;;;;;4940384;28;20720;-57
2022/04/15 08:37:23;;;;;;;5.88;4.40;;;19.50;55.00;;;;;;4936082;29;20294;-61
2022/04/15 08:39:53;;;;;;;5.13;4.40;;;19.60;55.10;;;;;;4936169;29;20235;-61
2022/04/15 08:42:26;;;;;;;4.68;4.15;;;19.50;55.10;;;;;;4935874;29;20282;-60
2022/04/15 08:44:57;;;;;;;4.75;4.35;;;19.50;55.10;;;;;;4935653;29;20274;-61
2022/04/15 08:47:28;;;;;;;5.35;4.72;;;19.50;55.10;;;;;;4935533;29;20290;-60
2022/04/15 08:50:00;;;;;;;7.72;6.43;;;19.50;55.20;;;;;;4934428;29;20234;-63
2022/04/15 08:52:30;;;;;;;7.57;6.60;;;19.50;55.80;;;;;;4934681;29;20278;-59
2022/04/15 08:55:01;;;;;;;7.60;5.90;;;19.50;56.20;;;;;;4951782;28;20195;-60
2022/04/15 08:57:33;;;;;;;6.25;5.65;;;19.50;56.10;;;;;;4953414;28;20281;-60
2022/04/15 09:00:05;;;;;;;7.47;5.90;;;19.50;56.10;;;;;;4953451;28;20198;-60
2022/04/15 09:02:37;;;;;;;6.25;5.68;;;19.40;55.90;;;;;;4953830;28;20257;-60
2022/04/15 09:05:09;;;;;;;6.70;5.07;;;19.40;56.40;;;;;;4952689;28;20202;-60
2022/04/15 09:07:40;;;;;;;6.63;5.38;;;19.40;55.80;;;;;;4952016;28;20282;-60
2022/04/15 09:10:12;;;;;;;7.72;5.82;;;19.40;55.80;;;;;;4951157;29;20289;-60
2022/04/15 09:12:46;;;;;;;6.35;5.45;;;19.40;55.80;;;;;;4951045;29;20234;-60
2022/04/15 09:15:17;;;;;;;7.43;5.07;;;19.30;55.70;;;;;;4952621;28;20279;-60
2022/04/15 09:17:50;;;;;;;5.50;4.95;;;19.30;55.70;;;;;;4952896;28;20286;-61
2022/04/15 09:20:21;;;;;;;7.28;5.20;;;19.30;55.70;;;;;;4952655;28;20191;-58
2022/04/15 09:22:55;;;;;;;5.25;4.70;;;19.30;55.70;;;;;;4948858;28;20318;-59
2022/04/15 09:25:30;;;;;;;5.43;4.93;;;19.30;55.70;;;;;;4952354;28;20312;-59
2022/04/15 09:28:02;;;;;;;6.32;4.80;;;19.20;55.60;;;;;;4949740;28;20277;-58
2022/04/15 09:30:39;;;;;;;5.68;4.70;;;19.20;55.60;;;;;;4950549;28;20203;-60
2022/04/15 09:33:12;;;;;;;5.13;4.60;;;19.20;55.60;;;;;;4952078;28;20233;-60
2022/04/15 09:35:48;;;;;;;5.00;4.50;;;19.20;55.60;;;;;;4940292;28;20638;-61
2022/04/15 09:38:19;;;;;;;5.15;4.70;;;19.20;55.60;;;;;;4936086;29;20207;-59
2022/04/15 09:40:49;;;;;;;7.13;4.65;;;19.20;55.60;;;;;;4935273;29;20201;-59
2022/04/15 09:43:23;;;;;;;5.25;4.72;;;19.20;55.60;;;;;;4934225;29;20302;-58
2022/04/15 09:45:54;;;;;;;6.43;4.28;;;19.10;55.50;;;;;;4934628;29;20206;-57
2022/04/15 09:48:24;;;;;;;5.57;4.57;;;19.10;55.50;;;;;;4935096;29;20282;-58
2022/04/15 09:50:59;;;;;;;5.97;4.60;;;19.10;55.50;;;;;;4934254;29;20282;-60
2022/04/15 09:53:36;;;;;;;5.20;4.38;;;19.10;55.60;;;;;;4934504;29;20306;-57
2022/04/15 09:56:09;;;;;;;5.25;4.40;;;19.00;55.50;;;;;;4934469;29;20275;-59
2022/04/15 09:58:43;;;;;;;5.80;4.38;;;19.00;55.50;;;;;;4934891;29;20810;-56
2022/04/15 10:01:14;;;;;;;6.25;4.47;;;19.00;55.60;;;;;;4934959;29;20647;-56
2022/04/15 10:03:46;;;;;;;5.30;4.05;;;19.00;55.60;;;;;;4934400;29;20322;-58
2022/04/15 10:06:17;;;;;;;5.65;4.13;;;19.00;55.60;;;;;;4934099;29;20680;-58
2022/04/15 10:08:48;;;;;;;4.53;4.13;;;19.00;55.60;;;;;;4934236;29;20286;-57
2022/04/15 10:11:19;;;;;;;4.20;3.80;;;19.00;55.70;;;;;;4934144;29;20314;-58
2022/04/15 10:13:53;;;;;;;6.28;4.60;;;19.00;55.70;;;;;;4934448;29;20274;-58
2022/04/15 10:16:24;;;;;;;4.43;3.97;;;18.90;55.60;;;;;;4933952;29;20199;-60
2022/04/15 10:18:55;;;;;;;5.53;3.90;;;18.90;55.60;;;;;;4934529;29;20286;-58
2022/04/15 10:21:25;;;;;;;5.88;3.80;;;18.90;55.60;;;;;;4933927;29;20195;-57
2022/04/15 10:23:56;;;;;;;5.10;3.92;;;18.90;55.60;;;;;;4932998;29;20325;-58
2022/04/15 10:26:27;;;;;;;4.55;3.55;;;18.90;55.60;;;;;;4934516;29;20802;-59
2022/04/15 10:29:03;;;;;;;5.30;3.47;;;18.90;55.60;;;;;;4934543;29;20294;-57
2022/04/15 10:31:41;;;;;;;4.50;3.90;;;18.80;55.60;;;;;;4944987;29;20195;-59
2022/04/15 10:34:15;;;;;;;4.45;3.95;;;18.80;55.60;;;;;;4953249;28;20233;-59
2022/04/15 10:36:50;;;;;;;4.63;3.63;;;18.80;55.60;;;;;;4934483;28;20211;-60
2022/04/15 10:39:24;;;;;;;6.00;3.53;;;18.80;55.60;;;;;;4932732;29;20270;-59
2022/04/15 10:42:01;;;;;;;5.10;3.70;;;18.80;55.60;;;;;;4933021;29;20757;-57
2022/04/15 10:44:36;;;;;;;5.50;3.78;;;18.80;55.60;;;;;;4933742;29;20262;-59
2022/04/15 10:47:29;;;;;;;5.03;3.38;;;18.70;55.60;;;;;;4933516;29;20199;-60
2022/04/15 10:50:03;;;;;;;4.65;4.10;;;18.70;55.60;;;;;;4930678;29;20203;-60
2022/04/15 10:52:34;;;;;;;4.63;3.20;;;18.70;55.60;;;;;;4933803;29;20289;-58
2022/04/15 10:55:07;;;;;;;6.22;3.80;;;18.70;55.70;;;;;;4933490;29;20290;-59
2022/04/15 10:57:40;;;;;;;3.88;3.47;;;18.70;55.70;;;;;;4933614;29;20291;-59
2022/04/15 11:03:23;;;;;;;4.05;3.58;;;18.60;55.70;;;;;;4916522;29;20238;-59
2022/04/15 11:05:58;;;;;;;4.03;2.92;;;18.60;55.70;;;;;;4932903;29;20290;-59
2022/04/15 11:08:29;;;;;;;5.10;3.22;;;18.60;55.70;;;;;;4933660;29;20221;-59
2022/04/15 11:11:04;;;;;;;4.60;3.28;;;18.60;55.60;;;;;;4933470;29;20683;-59
2022/04/15 11:13:56;;;;;;;5.07;3.20;;;18.60;55.70;;;;;;4933204;29;20591;-59
2022/04/15 11:16:42;;;;;;;4.43;3.22;;;18.60;55.70;;;;;;4932935;29;20294;-59
2022/04/15 11:19:16;;;;;;;5.47;3.25;;;18.50;55.60;;;;;;4932996;29;20776;-59
2022/04/15 11:21:53;;;;;;;4.07;2.95;;;18.50;55.60;;;;;;4932521;29;20200;-59
2022/04/15 11:24:28;;;;;;;4.63;2.90;;;18.50;55.60;;;;;;4933132;29;20317;-59
2022/04/15 11:27:03;;;;;;;4.25;3.17;;;18.50;55.60;;;;;;4933153;29;20282;-59
2022/04/15 11:29:34;;;;;;;3.92;3.15;;;18.50;55.60;;;;;;4933220;29;20202;-57
2022/04/15 11:32:08;;;;;;;4.82;3.10;;;18.50;55.60;;;;;;4934121;29;20626;-59
2022/04/15 11:34:39;;;;;;;3.75;2.97;;;18.50;55.60;;;;;;4932903;29;20259;-60
2022/04/15 11:37:10;;;;;;;3.90;3.03;;;18.40;55.60;;;;;;4932359;29;20287;-60
2022/04/15 11:39:47;;;;;;;4.68;3.35;;;18.40;55.60;;;;;;4935647;29;20195;-59
2022/04/15 11:42:18;;;;;;;3.30;2.72;;;18.40;55.60;;;;;;4932772;29;20202;-58
2022/04/15 11:44:49;;;;;;;4.18;3.30;;;18.40;55.60;;;;;;4932662;29;20668;-58
2022/04/15 11:47:24;;;;;;;3.00;2.50;;;18.40;55.60;;;;;;4932560;29;20747;-58
2022/04/15 11:49:54;;;;;;;3.72;2.88;;;18.40;55.60;;;;;;4932237;29;20211;-60
2022/04/15 11:52:26;;;;;;;3.10;2.70;;;18.40;55.60;;;;;;4932724;29;20696;-60
2022/04/15 11:54:58;;;;;;;3.70;2.80;;;18.30;55.60;;;;;;4932766;29;20610;-60
2022/04/15 11:57:31;;;;;;;3.97;2.95;;;18.30;55.70;;;;;;4932918;29;20196;-59
2022/04/15 12:00:02;;;;;;;3.40;2.60;;;18.30;55.60;;;;;;4932513;29;20208;-58
2022/04/15 12:02:35;;;;;;;4.53;2.92;;;18.30;55.70;;;;;;4932320;29;20234;-58
2022/04/15 12:05:05;;;;;;;4.65;2.78;;;18.30;55.70;;;;;;4932150;29;20318;-59
2022/04/15 12:07:36;;;;;;;3.60;2.70;;;18.30;55.70;;;;;;4913717;29;20279;-59
2022/04/15 12:10:06;;;;;;;4.35;2.58;;;18.20;55.60;;;;;;4913567;29;20275;-58
2022/04/15 12:12:37;;;;;;;3.20;2.70;;;18.20;55.60;;;;;;4913191;29;20314;-58
2022/04/15 12:15:08;;;;;;;3.03;2.70;;;18.20;55.60;;;;;;4913618;29;20620;-60
2022/04/15 12:17:42;;;;;;;4.18;3.10;;;18.20;55.60;;;;;;4927757;29;20238;-60
2022/04/15 12:20:16;;;;;;;3.25;2.58;;;18.20;55.60;;;;;;4932774;29;20298;-59
2022/04/15 12:22:47;;;;;;;4.63;2.67;;;18.20;55.60;;;;;;4913637;29;20635;-59
2022/04/15 12:25:17;;;;;;;3.97;2.63;;;18.10;55.60;;;;;;4913562;29;20227;-57
2022/04/15 12:27:48;;;;;;;2.78;2.30;;;18.10;55.60;;;;;;4913618;29;20285;-58
2022/04/15 12:30:37;;;;;;;3.22;2.40;;;18.10;55.60;;;;;;4916427;29;20722;-58
2022/04/15 12:33:13;;;;;;;3.42;2.65;;;18.10;55.60;;;;;;4951707;28;20587;-60
2022/04/15 12:36:02;;;;;;;3.13;2.45;;;18.10;55.70;;;;;;4947569;28;20286;-59
2022/04/15 12:38:43;;;;;;;2.90;2.60;;;18.10;55.60;;;;;;4931902;29;20195;-58
2022/04/15 12:41:14;;;;;;;3.75;2.38;;;18.10;55.60;;;;;;4931733;29;20267;-58
2022/04/15 12:43:44;;;;;;;3.85;2.55;;;18.00;55.60;;;;;;4932467;29;20337;-59
2022/04/15 12:46:20;;;;;;;3.47;2.42;;;18.00;55.60;;;;;;4932304;29;20291;-58
2022/04/15 12:48:55;;;;;;;3.47;2.35;;;18.00;55.70;;;;;;4932163;29;20282;-58
2022/04/15 12:51:37;;;;;;;3.75;2.78;;;18.00;55.70;;;;;;4931862;29;20199;-58
2022/04/15 12:54:09;;;;;;;3.53;2.40;;;18.00;55.70;;;;;;4932506;29;20318;-58
2022/04/15 12:56:39;;;;;;;3.22;2.20;;;18.00;55.70;;;;;;4932205;29;20202;-58
2022/04/15 12:59:10;;;;;;;3.13;2.60;;;17.90;55.60;;;;;;4931990;29;20574;-58
2022/04/15 13:01:41;;;;;;;3.00;2.38;;;17.90;55.60;;;;;;4932188;29;20298;-58
2022/04/15 13:04:17;;;;;;;3.38;2.40;;;17.90;55.60;;;;;;4931847;29;20322;-59
2022/04/15 13:06:48;;;;;;;2.90;2.17;;;17.90;55.60;;;;;;4931829;29;20242;-59
2022/04/15 13:09:21;;;;;;;2.35;2.10;;;17.90;55.70;;;;;;4932048;29;20227;-59
2022/04/15 13:11:53;;;;;;;2.47;2.25;;;17.90;55.70;;;;;;4933386;29;20595;-58